createdAt,value
2022-08-29T00:12:59.461Z,4.44
2022-08-29T00:27:50.762Z,4.79
2022-08-29T00:42:41.757Z,4.98
2022-08-29T00:57:32.579Z,4.34
2022-08-29T01:12:24.119Z,3.76
2022-08-29T01:27:14.419Z,3.88
2022-08-29T01:42:05.289Z,4.11
2022-08-29T01:56:57.310Z,3.50
2022-08-29T02:11:48.617Z,3.69
2022-08-29T02:26:40.960Z,3.20
2022-08-29T02:41:32.479Z,2.90
2022-08-29T02:56:22.663Z,2.56
2022-08-29T03:11:12.925Z,2.46
2022-08-29T03:26:04.289Z,2.51
2022-08-29T03:40:57.553Z,2.68
2022-08-29T03:55:46.601Z,2.30
2022-08-29T04:10:38.447Z,2.49
2022-08-29T04:25:32.915Z,2.12
2022-08-29T04:40:20.303Z,2.58
2022-08-29T04:55:11.787Z,2.29
2022-08-29T05:10:02.661Z,2.60
2022-08-29T05:24:53.595Z,2.74
2022-08-29T05:39:45.036Z,2.57
2022-08-29T05:54:36.344Z,2.91
2022-08-29T06:09:27.637Z,3.23
2022-08-29T06:24:18.773Z,3.30
2022-08-29T06:39:10.895Z,3.66
2022-08-29T06:54:03.826Z,3.52
2022-08-29T07:08:56.446Z,3.77
2022-08-29T07:23:46.878Z,2.78
2022-08-29T07:38:39.106Z,2.84
2022-08-29T07:53:32.353Z,3.20
2022-08-29T08:08:24.327Z,2.98
2022-08-29T08:23:17.071Z,2.92
2022-08-29T08:38:10.031Z,3.08
2022-08-29T08:53:07.859Z,2.86
2022-08-29T09:08:07.929Z,2.70
2022-08-29T09:23:07.077Z,3.03
2022-08-29T09:38:02.210Z,3.53
2022-08-29T09:53:00.737Z,3.70
2022-08-29T10:07:57.080Z,3.84
2022-08-29T10:23:05.473Z,4.25
2022-08-29T10:38:33.698Z,3.97
2022-08-29T10:53:32.603Z,3.30
2022-08-29T11:08:31.967Z,3.41
2022-08-29T11:23:40.352Z,3.37
2022-08-29T11:38:43.995Z,3.67
2022-08-29T11:53:41.198Z,3.74
2022-08-29T12:08:37.833Z,4.40
2022-08-29T12:23:35.733Z,3.67
2022-08-29T12:38:31.606Z,3.68
2022-08-29T12:53:28.987Z,3.76
2022-08-29T13:08:31.047Z,3.90
2022-08-29T13:23:28.456Z,3.76
2022-08-29T13:38:21.901Z,3.67
2022-08-29T13:53:15.350Z,3.56
2022-08-29T14:08:07.956Z,4.13
2022-08-29T14:23:00.640Z,3.76
2022-08-29T14:37:53.502Z,3.68
2022-08-29T14:52:45.907Z,3.81
2022-08-29T15:07:38.341Z,4.18
2022-08-29T15:22:34.078Z,3.42
2022-08-29T15:37:29.398Z,3.49
2022-08-29T15:52:18.245Z,4.10
2022-08-29T16:07:08.806Z,4.11
2022-08-29T16:21:59.547Z,3.82
2022-08-29T16:36:51.140Z,4.32
2022-08-29T16:51:43.553Z,3.81
2022-08-29T17:06:36.581Z,3.53
2022-08-29T17:21:27.699Z,3.96
2022-08-29T17:36:19.005Z,3.89
2022-08-29T17:51:10.778Z,4.16
2022-08-29T18:06:03.596Z,3.73
2022-08-29T18:20:56.563Z,3.68
2022-08-29T18:35:47.740Z,3.70
2022-08-29T18:50:39.591Z,3.52
2022-08-29T19:05:31.071Z,4.22
2022-08-29T19:20:41.201Z,4.05
2022-08-29T19:35:38.257Z,3.30
2022-08-29T19:50:30.874Z,3.36
2022-08-29T20:05:24.604Z,3.35
2022-08-29T20:20:16.221Z,3.28
2022-08-29T20:35:07.342Z,3.20
2022-08-29T20:49:57.959Z,3.30
2022-08-29T21:05:07.842Z,3.46
2022-08-29T21:20:05.575Z,3.31
2022-08-29T21:34:56.889Z,3.29
2022-08-29T21:49:48.113Z,3.25
2022-08-29T22:04:39.099Z,3.35
2022-08-29T22:19:30.207Z,3.25
2022-08-29T22:34:21.848Z,3.22
2022-08-29T22:49:14.075Z,3.37
2022-08-29T23:04:06.077Z,3.15
2022-08-29T23:18:56.875Z,3.10
